Time;durP1;ratioP1;P1;durP2;ratioP2;P2;SDS_P1;SDS_P2;PMS_P1;PMS_P2;Temp;Humidity;BMP_temperature;BMP_pressure;BME280_temperature;BME280_humidity;BME280_pressure;Samples;Min_cycle;Max_cycle;Signal;HPM_P1;HPM_P2
2022/05/16 00:01:05;;;;;;;11.95;3.15;;;15.60;96.00;;;;;;5018119;28;20378;-83
2022/05/16 00:03:31;;;;;;;9.48;3.15;;;15.60;96.30;;;;;;5017700;28;20096;-84
2022/05/16 00:05:57;;;;;;;5.93;3.17;;;15.60;96.40;;;;;;5034234;28;20033;-83
2022/05/16 00:08:23;;;;;;;7.28;3.33;;;15.50;96.40;;;;;;5034130;28;20440;-83
2022/05/16 00:10:49;;;;;;;8.20;3.38;;;15.50;96.60;;;;;;5034295;28;20041;-83
2022/05/16 00:13:15;;;;;;;9.10;3.08;;;15.40;97.00;;;;;;5034279;28;20436;-84
2022/05/16 00:15:40;;;;;;;10.00;3.15;;;15.40;97.00;;;;;;5017931;28;20116;-83
2022/05/16 00:18:06;;;;;;;11.07;3.10;;;15.50;97.10;;;;;;5017539;28;20065;-84
2022/05/16 00:20:33;;;;;;;4.88;2.60;;;15.50;97.10;;;;;;5017288;28;20044;-84
2022/05/16 00:22:58;;;;;;;7.47;3.35;;;15.50;97.40;;;;;;5035582;28;20036;-84
2022/05/16 00:25:26;;;;;;;8.20;3.90;;;15.50;97.90;;;;;;5035153;28;20083;-83
2022/05/16 00:27:52;;;;;;;8.98;3.80;;;15.50;97.80;;;;;;5033972;28;20037;-84
2022/05/16 00:30:20;;;;;;;7.15;3.00;;;15.50;97.50;;;;;;5017508;28;20033;-84
2022/05/16 00:32:49;;;;;;;6.88;3.45;;;15.60;97.00;;;;;;5033978;28;20029;-84
2022/05/16 00:35:19;;;;;;;8.52;3.65;;;15.60;97.20;;;;;;5017440;28;20029;-83
2022/05/16 00:37:45;;;;;;;7.97;3.33;;;15.60;97.70;;;;;;5033383;28;20037;-84
2022/05/16 00:40:12;;;;;;;8.18;3.55;;;15.50;97.50;;;;;;5033767;28;20124;-83
2022/05/16 00:42:39;;;;;;;7.38;3.75;;;15.40;98.20;;;;;;5017093;28;20037;-84
2022/05/16 00:45:07;;;;;;;9.75;3.30;;;15.40;98.60;;;;;;5033657;28;20029;-84
2022/05/16 00:47:33;;;;;;;8.73;3.08;;;15.40;98.40;;;;;;5033779;28;20033;-84
2022/05/16 00:50:01;;;;;;;5.97;2.90;;;15.50;98.10;;;;;;5017038;28;20043;-84
2022/05/16 00:52:34;;;;;;;6.35;2.60;;;15.50;98.10;;;;;;5017185;28;20061;-83
2022/05/16 00:55:31;;;;;;;11.27;3.45;;;15.50;98.30;;;;;;5016998;28;20038;-84
2022/05/16 00:58:01;;;;;;;5.55;3.28;;;15.50;98.70;;;;;;5032686;28;20029;-84
2022/05/16 01:00:30;;;;;;;7.72;3.20;;;15.50;99.10;;;;;;5033470;28;20515;-84
2022/05/16 01:06:05;;;;;;;9.07;3.00;;;15.40;99.60;;;;;;5033863;28;20088;-84
2022/05/16 01:08:35;;;;;;;5.05;3.00;;;15.40;99.70;;;;;;5033237;28;20040;-84
2022/05/16 01:11:05;;;;;;;7.38;3.72;;;15.50;99.90;;;;;;5033363;28;20040;-83
2022/05/16 01:13:31;;;;;;;7.80;3.45;;;15.40;99.90;;;;;;5017246;28;20025;-84
2022/05/16 01:15:59;;;;;;;7.65;3.03;;;15.40;99.90;;;;;;5033664;28;20040;-84
2022/05/16 01:18:26;;;;;;;7.32;3.00;;;15.40;99.90;;;;;;5016478;28;20029;-84
2022/05/16 01:21:17;;;;;;;11.05;3.45;;;15.50;99.90;;;;;;5016903;28;20037;-84
2022/05/16 01:23:46;;;;;;;8.35;3.30;;;15.40;99.90;;;;;;5017008;28;20461;-84
2022/05/16 01:26:17;;;;;;;9.70;3.13;;;15.40;99.90;;;;;;5016994;28;20060;-84
2022/05/16 01:28:43;;;;;;;6.72;2.90;;;15.40;99.90;;;;;;5016626;28;20037;-84
2022/05/16 01:31:09;;;;;;;4.55;3.03;;;15.30;99.90;;;;;;5016187;28;20121;-84
2022/05/16 01:33:35;;;;;;;5.57;3.20;;;15.30;99.90;;;;;;5015668;28;20056;-84
2022/05/16 01:36:00;;;;;;;5.90;3.03;;;15.30;99.90;;;;;;5016389;28;20029;-84
2022/05/16 01:38:28;;;;;;;7.90;3.60;;;15.40;99.90;;;;;;5032539;28;20032;-83
2022/05/16 01:41:14;;;;;;;10.35;2.97;;;15.40;99.90;;;;;;5032761;28;20064;-83
2022/05/16 01:43:46;;;;;;;4.13;3.13;;;15.40;99.90;;;;;;5016068;28;20033;-83
2022/05/16 01:46:16;;;;;;;7.55;3.47;;;15.40;99.90;;;;;;5015665;28;20401;-83
2022/05/16 01:48:43;;;;;;;9.23;3.55;;;15.40;99.90;;;;;;5015888;28;20037;-84
2022/05/16 01:51:11;;;;;;;6.30;3.03;;;15.40;99.90;;;;;;5032389;28;20029;-84
2022/05/16 01:53:38;;;;;;;7.35;3.13;;;15.50;99.90;;;;;;5015574;28;20021;-83
2022/05/16 01:56:04;;;;;;;6.45;3.65;;;15.50;99.90;;;;;;5015959;28;20022;-84
2022/05/16 01:58:30;;;;;;;5.32;3.83;;;15.50;99.90;;;;;;5031888;28;20056;-84
2022/05/16 02:00:56;;;;;;;3.83;3.20;;;15.50;99.90;;;;;;5015853;28;20034;-84
2022/05/16 02:03:22;;;;;;;5.30;3.08;;;15.50;99.90;;;;;;5032267;28;20385;-84
2022/05/16 02:05:48;;;;;;;6.25;3.22;;;15.40;99.90;;;;;;5032243;28;20029;-83
2022/05/16 02:08:15;;;;;;;4.78;2.83;;;15.40;99.90;;;;;;5015843;28;20072;-84
2022/05/16 02:10:42;;;;;;;5.03;3.00;;;15.30;99.90;;;;;;5032213;28;20033;-83
2022/05/16 02:13:08;;;;;;;6.13;3.22;;;15.40;99.90;;;;;;5032201;28;20489;-84
2022/05/16 02:15:36;;;;;;;8.85;3.05;;;15.30;99.90;;;;;;5015926;28;20029;-84
2022/05/16 02:18:18;;;;;;;10.85;3.20;;;15.30;99.90;;;;;;5032029;28;20079;-84
2022/05/16 02:20:43;;;;;;;6.82;3.55;;;15.40;99.90;;;;;;5032043;28;20039;-84
2022/05/16 02:25:56;;;;;;;10.00;3.13;;;15.40;99.90;;;;;;5031593;28;20044;-83
2022/05/16 02:28:22;;;;;;;15.10;3.17;;;15.40;99.90;;;;;;5014836;28;20034;-84
2022/05/16 02:30:49;;;;;;;4.28;2.70;;;15.40;99.90;;;;;;5031885;28;20048;-84
2022/05/16 02:33:17;;;;;;;4.22;3.05;;;15.50;99.90;;;;;;5015123;28;20384;-84
2022/05/16 02:35:43;;;;;;;4.10;3.03;;;15.50;99.90;;;;;;5015075;28;20029;-84
2022/05/16 02:38:10;;;;;;;6.70;3.47;;;15.60;99.90;;;;;;5031233;28;20022;-84
2022/05/16 02:40:36;;;;;;;5.43;3.10;;;15.70;99.90;;;;;;5014998;28;20033;-84
2022/05/16 02:43:03;;;;;;;5.85;3.17;;;15.70;99.90;;;;;;5015381;28;20033;-84
2022/05/16 02:45:30;;;;;;;4.45;2.92;;;15.70;99.90;;;;;;5015700;28;20029;-84
2022/05/16 02:47:56;;;;;;;8.02;3.15;;;15.70;99.90;;;;;;5031758;28;20044;-84
2022/05/16 02:50:23;;;;;;;10.45;4.45;;;15.70;99.90;;;;;;5031830;28;20849;-84
2022/05/16 02:52:50;;;;;;;4.38;3.00;;;15.60;99.90;;;;;;5015082;28;20641;-83
2022/05/16 02:55:15;;;;;;;4.10;2.67;;;15.60;99.90;;;;;;5031840;28;20432;-83
2022/05/16 02:57:41;;;;;;;6.45;3.47;;;15.60;99.90;;;;;;5015293;28;20022;-84
2022/05/16 03:00:09;;;;;;;8.20;3.30;;;15.50;99.90;;;;;;5014962;28;20025;-84
2022/05/16 03:02:35;;;;;;;7.38;3.80;;;15.50;99.90;;;;;;5015173;28;20037;-84
2022/05/16 03:05:02;;;;;;;4.93;3.13;;;15.40;99.90;;;;;;5033189;28;20799;-84
2022/05/16 03:07:28;;;;;;;5.95;3.38;;;15.30;99.90;;;;;;5015331;28;20195;-83
2022/05/16 03:09:53;;;;;;;7.15;3.33;;;15.30;99.90;;;;;;5015279;28;20124;-84
2022/05/16 03:12:19;;;;;;;5.95;3.40;;;15.20;99.90;;;;;;5014576;28;20021;-84
2022/05/16 03:14:44;;;;;;;5.22;3.10;;;15.20;99.90;;;;;;5032697;28;20164;-83
2022/05/16 03:17:10;;;;;;;6.43;2.85;;;15.20;99.90;;;;;;5031386;28;20087;-84
2022/05/16 03:19:36;;;;;;;8.50;3.40;;;15.10;99.90;;;;;;5014571;28;20036;-84
2022/05/16 03:22:06;;;;;;;4.07;3.20;;;15.20;99.90;;;;;;5014621;28;20088;-84
2022/05/16 03:24:32;;;;;;;5.05;2.92;;;15.10;99.90;;;;;;5030988;28;20507;-83
2022/05/16 03:26:58;;;;;;;5.03;3.17;;;15.10;99.90;;;;;;5014964;28;20099;-84
2022/05/16 03:29:25;;;;;;;8.85;2.95;;;15.10;99.90;;;;;;5031119;28;20478;-84
2022/05/16 03:31:50;;;;;;;6.50;3.30;;;14.90;99.90;;;;;;5031740;28;20026;-84
2022/05/16 03:34:16;;;;;;;9.88;3.03;;;14.80;99.90;;;;;;5031553;28;20031;-83
2022/05/16 03:36:42;;;;;;;7.15;3.15;;;14.70;99.90;;;;;;5031421;28;20065;-84
2022/05/16 03:41:52;;;;;;;8.93;3.78;;;14.60;99.90;;;;;;5031041;28;20132;-81
2022/05/16 03:44:18;;;;;;;5.10;2.80;;;14.80;99.90;;;;;;5031276;28;20061;-81
2022/05/16 03:46:43;;;;;;;10.43;3.47;;;14.80;99.90;;;;;;5014594;28;20040;-81
2022/05/16 03:49:10;;;;;;;5.28;3.17;;;14.70;99.90;;;;;;5014151;28;20392;-81
2022/05/16 03:51:36;;;;;;;5.43;3.33;;;14.60;99.90;;;;;;5014484;28;20083;-81
2022/05/16 03:54:02;;;;;;;17.35;4.50;;;14.70;99.90;;;;;;5014294;28;20473;-81
2022/05/16 03:56:28;;;;;;;8.80;3.55;;;14.80;99.90;;;;;;5033236;28;20386;-81
2022/05/16 03:58:55;;;;;;;10.00;4.07;;;14.90;99.90;;;;;;5017685;28;20599;-81
2022/05/16 04:01:22;;;;;;;7.13;3.97;;;15.00;99.90;;;;;;5033988;28;20036;-81
2022/05/16 04:03:48;;;;;;;8.55;4.05;;;15.10;99.90;;;;;;5017773;28;20025;-81
2022/05/16 04:06:14;;;;;;;7.00;3.58;;;15.00;99.90;;;;;;5035190;28;20061;-81
2022/05/16 04:08:42;;;;;;;11.52;3.50;;;15.00;99.90;;;;;;5017476;28;20099;-81
2022/05/16 04:11:08;;;;;;;7.97;4.15;;;15.00;99.90;;;;;;5017274;28;20597;-81
2022/05/16 04:13:35;;;;;;;15.70;4.60;;;14.90;99.90;;;;;;5017459;28;20037;-81
2022/05/16 04:16:10;;;;;;;8.63;3.83;;;14.90;99.90;;;;;;5033886;28;20558;-81
2022/05/16 04:18:36;;;;;;;7.82;4.05;;;14.80;99.90;;;;;;5017580;28;20040;-81
2022/05/16 04:21:03;;;;;;;6.07;3.60;;;14.70;99.90;;;;;;5017729;28;20041;-81
2022/05/16 04:23:29;;;;;;;8.23;3.90;;;14.70;99.90;;;;;;5034124;28;20025;-81
2022/05/16 04:25:54;;;;;;;6.70;3.67;;;14.70;99.90;;;;;;5033733;28;20076;-81
2022/05/16 04:28:21;;;;;;;7.63;4.30;;;14.60;99.90;;;;;;5017129;28;20033;-81
2022/05/16 04:30:47;;;;;;;8.57;4.05;;;14.60;99.90;;;;;;5017351;28;20087;-80
2022/05/16 04:33:13;;;;;;;8.45;4.47;;;14.50;99.90;;;;;;5034083;28;20033;-81
2022/05/16 04:35:39;;;;;;;8.63;4.20;;;14.40;99.90;;;;;;5017560;28;20029;-81
2022/05/16 04:38:06;;;;;;;10.90;4.40;;;14.30;99.90;;;;;;5017217;28;20025;-81
2022/05/16 04:40:33;;;;;;;9.98;4.10;;;14.20;99.90;;;;;;5017699;28;20034;-81
2022/05/16 04:42:58;;;;;;;6.80;4.90;;;14.10;99.90;;;;;;5033719;28;20547;-81
2022/05/16 04:45:27;;;;;;;10.15;4.70;;;14.20;99.90;;;;;;5017230;28;20045;-81
2022/05/16 04:47:56;;;;;;;10.40;4.68;;;14.10;99.90;;;;;;5033578;28;20036;-81
2022/05/16 04:50:32;;;;;;;8.07;4.47;;;14.20;99.90;;;;;;5015828;28;20040;-81
2022/05/16 04:52:58;;;;;;;10.13;4.57;;;14.40;99.90;;;;;;5016343;28;20082;-81
2022/05/16 04:55:25;;;;;;;7.88;4.40;;;14.70;99.90;;;;;;5033138;28;20493;-81
2022/05/16 04:57:50;;;;;;;7.63;3.85;;;15.00;99.90;;;;;;5017036;28;20044;-81
2022/05/16 05:00:18;;;;;;;6.95;4.05;;;15.20;99.90;;;;;;5017315;28;20030;-81
2022/05/16 05:02:45;;;;;;;7.15;4.25;;;15.60;99.90;;;;;;5033424;28;20802;-81
2022/05/16 05:05:11;;;;;;;9.95;3.70;;;15.80;99.90;;;;;;5033627;28;20034;-81
2022/05/16 05:07:37;;;;;;;5.05;3.45;;;16.10;99.90;;;;;;5032297;28;20385;-81
2022/05/16 05:15:36;;;;;;;8.02;4.13;;;17.10;99.90;;;;;;5032802;28;20025;-82
2022/05/16 05:18:03;;;;;;;7.38;4.00;;;17.40;99.90;;;;;;5032798;28;20040;-81
2022/05/16 05:20:29;;;;;;;9.13;3.90;;;17.60;99.90;;;;;;5032990;28;20147;-81
2022/05/16 05:23:29;;;;;;;9.85;3.78;;;17.60;99.90;;;;;;5032742;28;20021;-81
2022/05/16 05:25:57;;;;;;;8.73;4.53;;;17.70;99.90;;;;;;5016185;28;20186;-81
2022/05/16 05:28:23;;;;;;;10.80;3.90;;;17.70;99.90;;;;;;5015936;28;20025;-82
2022/05/16 05:30:48;;;;;;;9.80;4.40;;;17.70;99.90;;;;;;5034250;28;20040;-81
2022/05/16 05:33:14;;;;;;;13.35;4.20;;;17.70;99.90;;;;;;5015524;28;20034;-81
2022/05/16 05:35:40;;;;;;;12.35;4.43;;;17.70;99.90;;;;;;5016130;28;20033;-81
2022/05/16 05:38:06;;;;;;;9.00;4.10;;;17.60;99.90;;;;;;5032345;28;20380;-81
2022/05/16 05:40:31;;;;;;;11.05;4.55;;;17.50;99.90;;;;;;5015555;28;20124;-81
2022/05/16 05:43:05;;;;;;;9.80;3.63;;;17.40;99.90;;;;;;5015694;28;20680;-81
2022/05/16 05:45:31;;;;;;;6.03;3.47;;;17.20;99.90;;;;;;5032477;28;20029;-81
2022/05/16 05:47:57;;;;;;;8.07;4.03;;;17.10;99.90;;;;;;5016037;28;20040;-81
2022/05/16 05:50:24;;;;;;;4.80;3.47;;;17.10;99.90;;;;;;5015379;28;20033;-80
2022/05/16 05:52:50;;;;;;;9.65;3.85;;;17.20;99.90;;;;;;5015386;28;20476;-81
2022/05/16 05:55:15;;;;;;;11.23;4.63;;;17.50;99.90;;;;;;5032413;28;20080;-81
2022/05/16 05:57:41;;;;;;;15.27;5.22;;;18.00;99.90;;;;;;5016288;28;20116;-81
2022/05/16 06:00:09;;;;;;;11.65;4.30;;;18.60;99.90;;;;;;5015042;28;20133;-82
2022/05/16 06:02:58;;;;;;;5.20;3.92;;;19.20;99.90;;;;;;5015639;28;20032;-82
2022/05/16 06:05:24;;;;;;;6.28;4.03;;;19.60;99.90;;;;;;5033485;28;20120;-81
2022/05/16 06:07:49;;;;;;;8.70;3.75;;;19.70;99.90;;;;;;5015265;28;20452;-81
2022/05/16 06:10:15;;;;;;;17.98;4.78;;;19.80;99.90;;;;;;5015583;28;20026;-82
2022/05/16 06:12:42;;;;;;;8.32;3.88;;;19.70;99.90;;;;;;5015579;28;20844;-82
2022/05/16 06:15:09;;;;;;;8.98;3.88;;;19.80;99.90;;;;;;5032345;28;20029;-81
2022/05/16 06:17:35;;;;;;;10.23;3.88;;;19.80;99.90;;;;;;5014337;28;20036;-81
2022/05/16 06:20:03;;;;;;;6.32;3.60;;;19.50;99.90;;;;;;5014569;28;20037;-81
2022/05/16 06:22:34;;;;;;;9.65;4.13;;;19.10;99.90;;;;;;5031060;28;20029;-81
2022/05/16 06:27:49;;;;;;;8.48;3.70;;;18.80;99.90;;;;;;5030897;28;20029;-81
2022/05/16 06:30:17;;;;;;;8.82;3.83;;;18.60;99.90;;;;;;5014778;28;20040;-81
2022/05/16 06:32:43;;;;;;;9.05;3.55;;;18.60;99.90;;;;;;5030949;28;20116;-81
2022/05/16 06:35:09;;;;;;;9.55;3.70;;;18.70;99.90;;;;;;5032007;28;20524;-81
2022/05/16 06:37:35;;;;;;;13.18;3.90;;;18.80;99.90;;;;;;5014321;28;20029;-82
2022/05/16 06:40:01;;;;;;;13.00;4.05;;;19.10;99.90;;;;;;5014627;28;20037;-81
2022/05/16 06:42:26;;;;;;;7.15;3.78;;;19.30;99.90;;;;;;5031536;28;20038;-82
2022/05/16 06:45:20;;;;;;;7.63;4.55;;;19.50;99.90;;;;;;5014890;28;20029;-82
2022/05/16 06:47:46;;;;;;;17.17;5.13;;;19.80;99.90;;;;;;5031451;28;20374;-81
2022/05/16 06:50:12;;;;;;;8.90;4.97;;;20.20;99.90;;;;;;5032573;28;20026;-81
2022/05/16 06:52:38;;;;;;;12.70;4.50;;;20.50;99.90;;;;;;5014721;28;20072;-81
2022/05/16 06:58:27;;;;;;;6.95;4.72;;;21.00;99.90;;;;;;5031127;28;20036;-82
2022/05/16 07:00:53;;;;;;;10.07;4.30;;;21.40;99.90;;;;;;5031086;28;20029;-81
2022/05/16 07:03:19;;;;;;;8.32;3.83;;;21.40;99.90;;;;;;5031171;28;20036;-82
2022/05/16 07:05:46;;;;;;;6.28;4.10;;;21.60;99.90;;;;;;5031214;28;20040;-81
2022/05/16 07:08:12;;;;;;;8.60;4.45;;;21.70;99.90;;;;;;5032233;28;20035;-81
2022/05/16 07:10:38;;;;;;;11.75;4.07;;;21.80;99.90;;;;;;5014003;28;20033;-82
2022/05/16 07:13:04;;;;;;;13.98;4.57;;;21.70;99.90;;;;;;5014395;28;20535;-82
2022/05/16 07:15:29;;;;;;;8.98;3.70;;;21.60;99.90;;;;;;5014582;28;20061;-81
2022/05/16 07:17:55;;;;;;;9.52;4.65;;;21.50;99.90;;;;;;5031205;28;20095;-81
2022/05/16 07:20:21;;;;;;;7.35;4.93;;;21.40;99.90;;;;;;5014902;28;20030;-82
2022/05/16 07:22:50;;;;;;;10.43;4.82;;;21.10;99.90;;;;;;5031072;28;20032;-81
2022/05/16 07:25:18;;;;;;;9.88;4.40;;;20.90;99.90;;;;;;5031469;28;20087;-81
2022/05/16 07:27:56;;;;;;;7.90;4.07;;;21.10;99.90;;;;;;5014862;28;20069;-81
2022/05/16 07:30:32;;;;;;;10.48;4.47;;;21.00;99.90;;;;;;5031784;28;20102;-81
2022/05/16 07:32:59;;;;;;;7.32;4.43;;;20.80;99.90;;;;;;5018261;28;20833;-81
2022/05/16 07:35:28;;;;;;;7.28;4.32;;;20.60;99.90;;;;;;5018608;28;20065;-81
2022/05/16 07:37:54;;;;;;;13.35;4.55;;;20.30;99.90;;;;;;5035199;28;20025;-81
2022/05/16 07:40:23;;;;;;;10.45;4.70;;;20.20;99.90;;;;;;5035016;28;20082;-81
2022/05/16 07:42:50;;;;;;;8.05;4.60;;;20.10;99.90;;;;;;5034201;28;20044;-81
2022/05/16 07:45:17;;;;;;;11.63;5.85;;;19.90;99.90;;;;;;5018095;28;20029;-82
2022/05/16 07:47:43;;;;;;;12.18;5.78;;;19.30;99.90;;;;;;5034534;28;20090;-82
2022/05/16 07:50:09;;;;;;;13.88;6.60;;;18.50;99.90;;;;;;5017773;28;20037;-82
2022/05/16 07:52:36;;;;;;;11.30;6.05;;;17.90;99.90;;;;;;5017624;28;20857;-82
2022/05/16 07:55:02;;;;;;;12.18;6.82;;;17.40;99.90;;;;;;5017430;28;20058;-82
2022/05/16 07:57:28;;;;;;;12.52;7.07;;;17.20;99.90;;;;;;5017433;28;20040;-83
2022/05/16 07:59:54;;;;;;;10.77;5.75;;;17.40;99.90;;;;;;5016955;28;20037;-82
2022/05/16 08:02:19;;;;;;;10.23;6.40;;;17.80;99.90;;;;;;5017523;28;20033;-82
2022/05/16 08:04:45;;;;;;;11.73;5.80;;;18.40;99.90;;;;;;5017783;28;20037;-82
2022/05/16 08:07:11;;;;;;;14.40;5.72;;;19.50;99.90;;;;;;5017460;28;20033;-82
2022/05/16 08:12:26;;;;;;;8.48;4.10;;;23.30;99.90;;;;;;5033734;28;20167;-82
2022/05/16 08:14:52;;;;;;;9.98;5.18;;;25.20;99.90;;;;;;5017362;28;20047;-82
2022/05/16 08:17:18;;;;;;;12.43;4.85;;;25.00;99.90;;;;;;5017340;28;20037;-82
2022/05/16 08:19:44;;;;;;;9.95;5.30;;;24.20;99.90;;;;;;5017309;28;20041;-83
2022/05/16 08:22:10;;;;;;;11.02;5.88;;;23.30;99.90;;;;;;5017620;28;20034;-82
2022/05/16 08:24:36;;;;;;;13.43;5.22;;;22.40;99.90;;;;;;5017570;28;20523;-82
2022/05/16 08:27:02;;;;;;;14.75;5.20;;;21.80;99.90;;;;;;5017823;28;20029;-82
2022/05/16 08:29:29;;;;;;;8.73;5.13;;;22.30;99.90;;;;;;5017237;28;20037;-82
2022/05/16 08:31:55;;;;;;;9.95;4.95;;;22.70;99.90;;;;;;5034176;28;20029;-82
2022/05/16 08:34:22;;;;;;;7.18;4.72;;;23.70;99.90;;;;;;5017724;28;20552;-83
2022/05/16 08:42:19;;;;;;;10.20;4.47;;;25.20;99.90;;;;;;5033349;28;20435;-82
2022/05/16 08:45:31;;;;;;;7.93;4.55;;;25.20;99.90;;;;;;5017160;28;20033;-81
2022/05/16 08:48:05;;;;;;;11.80;4.57;;;25.10;99.90;;;;;;4992004;28;20547;-81
2022/05/16 08:50:47;;;;;;;15.57;4.95;;;25.00;99.90;;;;;;5028468;28;20042;-81
2022/05/16 08:53:18;;;;;;;14.18;5.00;;;25.00;99.90;;;;;;5016379;28;20116;-82
2022/05/16 08:55:57;;;;;;;13.32;5.13;;;25.40;99.90;;;;;;5033481;28;20045;-82
2022/05/16 08:58:38;;;;;;;10.15;5.00;;;26.20;99.90;;;;;;5034125;28;20078;-82
2022/05/16 09:01:26;;;;;;;12.88;4.13;;;26.70;99.90;;;;;;5033479;28;20507;-81
2022/05/16 09:04:09;;;;;;;14.15;5.07;;;26.20;99.90;;;;;;5017248;28;20375;-82
2022/05/16 09:06:47;;;;;;;24.83;5.88;;;25.90;99.90;;;;;;5033435;28;20136;-82
2022/05/16 09:09:16;;;;;;;7.35;4.10;;;25.90;99.90;;;;;;5034318;28;20034;-82
2022/05/16 09:12:26;;;;;;;28.80;6.10;;;26.20;99.90;;;;;;5016178;28;20477;-82
2022/05/16 09:15:24;;;;;;;11.60;4.63;;;26.80;99.90;;;;;;5020258;28;20451;-82
2022/05/16 09:18:09;;;;;;;13.15;5.47;;;27.40;99.90;;;;;;5033011;28;20725;-82
2022/05/16 09:20:58;;;;;;;9.77;4.75;;;27.40;99.90;;;;;;5032605;28;20063;-81
2022/05/16 09:23:52;;;;;;;12.43;4.85;;;27.30;99.90;;;;;;5015989;28;20034;-81
2022/05/16 09:26:35;;;;;;;11.88;5.25;;;27.70;99.90;;;;;;5016135;28;20396;-82
2022/05/16 09:29:13;;;;;;;17.65;5.93;;;27.90;99.90;;;;;;5032429;28;20036;-82
2022/05/16 09:31:43;;;;;;;11.55;4.88;;;28.10;97.90;;;;;;5016455;28;20120;-82
2022/05/16 09:34:09;;;;;;;91.00;24.02;;;28.30;98.00;;;;;;5015872;28;20025;-82
2022/05/16 09:36:41;;;;;;;19.75;5.00;;;27.80;98.10;;;;;;5016470;28;20116;-81
2022/05/16 09:39:08;;;;;;;21.27;7.85;;;27.70;99.10;;;;;;5032198;28;20815;-81
2022/05/16 09:41:45;;;;;;;15.02;7.25;;;27.40;99.00;;;;;;5016129;28;20029;-81
2022/05/16 09:44:31;;;;;;;24.58;9.75;;;26.70;98.50;;;;;;5032785;28;20029;-81
2022/05/16 09:47:29;;;;;;;13.52;5.93;;;26.20;99.90;;;;;;5016186;28;20036;-82
2022/05/16 09:50:19;;;;;;;12.48;5.15;;;26.10;99.90;;;;;;5015678;28;20037;-82
2022/05/16 09:52:49;;;;;;;17.60;7.13;;;26.50;99.90;;;;;;5031469;28;20086;-82
2022/05/16 09:55:46;;;;;;;8.70;5.65;;;26.90;99.90;;;;;;5015317;28;20033;-82
2022/05/16 09:58:39;;;;;;;10.52;5.22;;;27.10;99.90;;;;;;5033595;28;20075;-81
2022/05/16 10:01:09;;;;;;;12.02;5.45;;;27.00;99.90;;;;;;5008642;28;20041;-82
2022/05/16 10:03:43;;;;;;;13.68;5.75;;;26.70;99.90;;;;;;5015858;28;20032;-81
2022/05/16 10:06:29;;;;;;;9.10;5.70;;;26.80;99.90;;;;;;5016219;28;20072;-82
2022/05/16 10:08:54;;;;;;;12.75;5.90;;;26.60;99.90;;;;;;5015726;28;20033;-81
2022/05/16 10:11:26;;;;;;;13.18;6.65;;;26.50;99.90;;;;;;5033603;28;20381;-83
2022/05/16 10:13:53;;;;;;;17.08;6.82;;;26.10;99.90;;;;;;5032298;28;20037;-81
2022/05/16 10:16:21;;;;;;;15.20;6.80;;;25.70;99.90;;;;;;5032017;28;20033;-82
2022/05/16 10:18:57;;;;;;;16.15;6.22;;;25.60;99.90;;;;;;5015133;28;20030;-82
2022/05/16 10:21:29;;;;;;;20.52;7.82;;;25.50;99.90;;;;;;5015809;28;20385;-82
2022/05/16 10:23:56;;;;;;;13.48;6.88;;;25.60;99.90;;;;;;5031664;28;20088;-82
2022/05/16 10:26:56;;;;;;;16.63;6.40;;;25.70;99.90;;;;;;5031265;28;20033;-82
2022/05/16 10:29:38;;;;;;;10.38;6.15;;;25.60;99.90;;;;;;5014161;28;20029;-81
2022/05/16 10:35:07;;;;;;;24.03;7.20;;;25.70;99.90;;;;;;5033089;28;20033;-82
2022/05/16 10:38:18;;;;;;;13.02;6.30;;;25.40;99.90;;;;;;5031584;28;20448;-82
2022/05/16 10:40:50;;;;;;;15.18;6.90;;;25.40;99.90;;;;;;5030547;28;20036;-82
2022/05/16 10:43:29;;;;;;;14.68;6.00;;;25.70;99.90;;;;;;5014276;28;20047;-82
2022/05/16 10:46:02;;;;;;;9.75;6.57;;;25.50;99.90;;;;;;5031211;28;20048;-82
2022/05/16 10:49:04;;;;;;;20.27;6.50;;;25.80;99.90;;;;;;5014751;28;20033;-83
2022/05/16 10:51:55;;;;;;;18.50;5.80;;;26.20;99.90;;;;;;5002733;28;20053;-81
2022/05/16 10:54:24;;;;;;;16.85;6.00;;;26.40;99.90;;;;;;5015168;28;20029;-82
2022/05/16 10:56:56;;;;;;;18.98;6.05;;;26.30;99.90;;;;;;5015157;28;20068;-81
2022/05/16 10:59:39;;;;;;;18.10;6.20;;;26.30;99.90;;;;;;5031207;28;20389;-81
2022/05/16 11:02:40;;;;;;;10.23;5.50;;;25.90;99.90;;;;;;5030697;28;20025;-82
2022/05/16 11:05:18;;;;;;;18.50;6.60;;;25.20;99.90;;;;;;4998536;28;20080;-82
2022/05/16 11:07:52;;;;;;;15.50;6.00;;;24.80;99.90;;;;;;5035417;28;20068;-81
2022/05/16 11:10:25;;;;;;;13.02;6.13;;;24.40;99.90;;;;;;5018727;28;20029;-81
2022/05/16 11:13:09;;;;;;;14.52;5.97;;;24.30;99.90;;;;;;5018567;28;20034;-82
2022/05/16 11:15:47;;;;;;;18.13;6.97;;;24.20;99.90;;;;;;5035408;28;20120;-82
2022/05/16 11:18:40;;;;;;;12.88;5.50;;;24.80;99.90;;;;;;5034930;28;20063;-82
2022/05/16 11:21:29;;;;;;;15.90;5.68;;;25.10;99.90;;;;;;5018832;28;20068;-82
2022/05/16 11:24:02;;;;;;;16.88;4.53;;;24.90;99.90;;;;;;5018445;28;20389;-82
2022/05/16 11:26:34;;;;;;;17.83;5.13;;;25.20;99.90;;;;;;5034939;28;20428;-81
2022/05/16 11:29:18;;;;;;;13.13;4.85;;;25.10;99.90;;;;;;5018506;28;20083;-81
2022/05/16 11:31:53;;;;;;;18.67;3.63;;;24.60;99.90;;;;;;5018941;28;20033;-82
2022/05/16 11:34:39;;;;;;;13.88;4.10;;;24.30;99.90;;;;;;5036565;28;20026;-82
2022/05/16 11:37:42;;;;;;;36.75;4.88;;;24.00;99.90;;;;;;5018074;28;20037;-82
2022/05/16 11:40:32;;;;;;;14.82;4.60;;;23.60;99.90;;;;;;5034032;28;20045;-81
2022/05/16 11:43:18;;;;;;;18.00;3.90;;;23.00;99.90;;;;;;5017555;28;20041;-81
2022/05/16 11:46:15;;;;;;;12.60;4.30;;;23.00;99.90;;;;;;5010618;28;20422;-82
2022/05/16 11:49:08;;;;;;;14.65;4.20;;;22.50;99.90;;;;;;5017955;28;20045;-81
2022/05/16 11:51:43;;;;;;;19.05;4.45;;;22.20;99.90;;;;;;5034792;28;20033;-81
2022/05/16 11:54:13;;;;;;;15.95;4.20;;;22.10;99.90;;;;;;5034518;28;20029;-82
2022/05/16 12:02:30;;;;;;;23.48;4.20;;;21.30;99.90;;;;;;5035323;28;20029;-82
2022/05/16 12:05:08;;;;;;;16.15;3.90;;;21.20;99.90;;;;;;5018055;28;20096;-82
2022/05/16 12:07:34;;;;;;;13.07;3.88;;;21.10;99.90;;;;;;5017732;28;20034;-81
2022/05/16 12:10:15;;;;;;;19.85;3.70;;;21.20;99.90;;;;;;5034299;28;20534;-80
2022/05/16 12:12:43;;;;;;;10.48;3.70;;;21.40;99.90;;;;;;5017262;28;20045;-82
2022/05/16 12:15:10;;;;;;;17.00;3.60;;;21.70;99.90;;;;;;5017467;28;20484;-82
2022/05/16 12:17:38;;;;;;;13.15;3.63;;;22.20;99.90;;;;;;5016783;28;20539;-81
2022/05/16 12:20:12;;;;;;;18.42;3.20;;;22.50;99.90;;;;;;5033666;28;20033;-81
2022/05/16 12:22:38;;;;;;;9.45;2.42;;;22.70;99.90;;;;;;5017587;28;20768;-82
2022/05/16 12:25:08;;;;;;;6.47;2.42;;;22.80;99.90;;;;;;5017591;28;20030;-81
2022/05/16 12:27:43;;;;;;;8.45;2.70;;;22.90;99.90;;;;;;5017504;28;20034;-82
2022/05/16 12:30:14;;;;;;;7.45;2.05;;;23.10;99.90;;;;;;5016809;28;20061;-82
2022/05/16 12:32:39;;;;;;;5.13;1.65;;;23.30;99.90;;;;;;5016772;28;20440;-81
2022/05/16 12:35:35;;;;;;;11.38;2.10;;;23.40;99.90;;;;;;5016907;28;20042;-82
2022/05/16 12:38:01;;;;;;;7.88;1.73;;;23.60;99.90;;;;;;5017040;28;20076;-82
2022/05/16 12:40:51;;;;;;;7.45;1.80;;;23.70;99.90;;;;;;5034426;28;20029;-81
2022/05/16 12:43:29;;;;;;;8.93;1.42;;;23.50;99.90;;;;;;5033533;28;20037;-82
2022/05/16 12:46:09;;;;;;;5.55;1.60;;;23.80;99.90;;;;;;5033228;28;20397;-82
2022/05/16 12:48:54;;;;;;;6.13;1.00;;;23.60;99.90;;;;;;5033279;28;20084;-81
2022/05/16 12:51:39;;;;;;;4.80;1.08;;;23.80;99.90;;;;;;5016418;28;20394;-81
2022/05/16 12:54:29;;;;;;;3.78;1.75;;;24.20;99.90;;;;;;5033106;28;20041;-82
2022/05/16 12:56:57;;;;;;;6.43;1.57;;;24.50;99.90;;;;;;5032902;28;20496;-81
2022/05/16 12:59:59;;;;;;;3.25;1.23;;;25.00;99.90;;;;;;5015955;28;20040;-81
2022/05/16 13:02:33;;;;;;;5.30;1.20;;;25.30;99.90;;;;;;5003960;28;20090;-80
2022/05/16 13:05:08;;;;;;;9.20;1.17;;;24.90;99.90;;;;;;5015966;28;20060;-81
2022/05/16 13:08:15;;;;;;;5.40;1.20;;;24.20;99.90;;;;;;5015942;28;20503;-81
2022/05/16 13:10:51;;;;;;;5.90;1.35;;;23.70;99.90;;;;;;5016310;28;20773;-81
2022/05/16 13:13:37;;;;;;;5.38;1.88;;;23.90;99.90;;;;;;5016586;28;20040;-82
2022/05/16 13:16:13;;;;;;;6.40;1.23;;;23.70;99.90;;;;;;5016454;28;20079;-81
2022/05/16 13:18:53;;;;;;;3.78;1.35;;;23.10;99.90;;;;;;5033080;28;20030;-80
2022/05/16 13:21:21;;;;;;;7.40;2.00;;;22.60;99.90;;;;;;5033186;28;20045;-81
2022/05/16 13:23:50;;;;;;;4.35;1.40;;;22.40;99.90;;;;;;5016323;28;20026;-81
2022/05/16 13:30:03;;;;;;;4.80;1.77;;;21.80;99.90;;;;;;5032220;28;20412;-81
2022/05/16 13:31:58;;;;;;;4.60;1.75;;;21.20;99.90;;;;;;5033135;28;20107;-81
2022/05/16 13:34:34;;;;;;;5.47;1.70;;;20.90;99.90;;;;;;5015900;28;20040;-81
2022/05/16 13:37:02;;;;;;;5.47;1.45;;;20.70;99.90;;;;;;5016001;28;20667;-81
2022/05/16 13:39:39;;;;;;;4.18;1.80;;;20.60;99.90;;;;;;5032178;28;20689;-81
2022/05/16 13:42:05;;;;;;;3.65;1.70;;;20.50;99.90;;;;;;5031995;28;20069;-81
2022/05/16 13:44:40;;;;;;;4.80;1.75;;;20.00;99.90;;;;;;5015775;28;20037;-81
2022/05/16 13:47:10;;;;;;;4.07;1.80;;;19.80;99.90;;;;;;5015729;28;20040;-81